sensor_id;sensor_type;location;lat;lon;timestamp;P1;durP1;ratioP1;P2;durP2;ratioP2
54307;SDS011;40208;39.778;2.710;2023-02-28T10:34:07;29.48;;;5.65;;
54307;SDS011;40208;39.778;2.710;2023-02-28T10:36:56;30.33;;;4.55;;
54307;SDS011;40208;39.778;2.710;2023-02-28T10:39:51;32.33;;;6.22;;
54307;SDS011;40208;39.778;2.710;2023-02-28T10:42:36;36.92;;;5.80;;
54307;SDS011;40208;39.778;2.710;2023-02-28T10:45:23;38.00;;;5.82;;
54307;SDS011;40208;39.778;2.710;2023-02-28T10:51:00;36.22;;;6.30;;
54307;SDS011;40208;39.778;2.710;2023-02-28T10:53:51;39.00;;;6.10;;
54307;SDS011;40208;39.778;2.710;2023-02-28T10:56:39;33.22;;;5.88;;
54307;SDS011;40208;39.778;2.710;2023-02-28T10:59:28;36.30;;;5.05;;
54307;SDS011;40208;39.778;2.710;2023-02-28T11:02:28;33.38;;;5.38;;
54307;SDS011;40208;39.778;2.710;2023-02-28T11:05:32;31.05;;;5.80;;
54307;SDS011;40208;39.778;2.710;2023-02-28T11:08:20;46.97;;;6.38;;
54307;SDS011;40208;39.778;2.710;2023-02-28T11:11:05;26.88;;;5.57;;
54307;SDS011;40208;39.778;2.710;2023-02-28T11:13:51;32.85;;;6.07;;
54307;SDS011;40208;39.778;2.710;2023-02-28T11:16:39;34.45;;;5.97;;
54307;SDS011;40208;39.778;2.710;2023-02-28T11:19:33;40.90;;;6.72;;
54307;SDS011;40208;39.778;2.710;2023-02-28T11:22:28;28.30;;;4.90;;
54307;SDS011;40208;39.778;2.710;2023-02-28T11:25:19;33.95;;;5.53;;
54307;SDS011;40208;39.778;2.710;2023-02-28T11:28:27;32.78;;;5.93;;
54307;SDS011;40208;39.778;2.710;2023-02-28T11:31:20;29.20;;;5.40;;
54307;SDS011;40208;39.778;2.710;2023-02-28T11:34:27;30.75;;;5.13;;
54307;SDS011;40208;39.778;2.710;2023-02-28T11:37:16;29.02;;;5.03;;
54307;SDS011;40208;39.778;2.710;2023-02-28T11:40:13;28.40;;;6.07;;
54307;SDS011;40208;39.778;2.710;2023-02-28T11:46:18;39.47;;;5.45;;
54307;SDS011;40208;39.778;2.710;2023-02-28T11:49:16;38.28;;;6.70;;
54307;SDS011;40208;39.778;2.710;2023-02-28T11:55:39;26.55;;;5.22;;
54307;SDS011;40208;39.778;2.710;2023-02-28T12:07:28;21.60;;;4.97;;
54307;SDS011;40208;39.778;2.710;2023-02-28T12:10:44;22.88;;;4.15;;
54307;SDS011;40208;39.778;2.710;2023-02-28T12:13:46;21.38;;;4.18;;
54307;SDS011;40208;39.778;2.710;2023-02-28T12:17:03;31.48;;;5.43;;
54307;SDS011;40208;39.778;2.710;2023-02-28T12:22:50;23.33;;;4.65;;
54307;SDS011;40208;39.778;2.710;2023-02-28T12:28:56;35.40;;;6.72;;
54307;SDS011;40208;39.778;2.710;2023-02-28T12:38:02;37.00;;;6.50;;
54307;SDS011;40208;39.778;2.710;2023-02-28T12:41:00;35.28;;;6.53;;
54307;SDS011;40208;39.778;2.710;2023-02-28T12:43:52;42.22;;;10.73;;
54307;SDS011;40208;39.778;2.710;2023-02-28T12:46:49;35.65;;;7.35;;
54307;SDS011;40208;39.778;2.710;2023-02-28T12:49:51;44.13;;;11.55;;
54307;SDS011;40208;39.778;2.710;2023-02-28T12:53:02;29.40;;;8.02;;
54307;SDS011;40208;39.778;2.710;2023-02-28T12:58:48;39.63;;;7.95;;
54307;SDS011;40208;39.778;2.710;2023-02-28T13:10:56;33.88;;;8.32;;
54307;SDS011;40208;39.778;2.710;2023-02-28T13:13:41;30.02;;;5.80;;
54307;SDS011;40208;39.778;2.710;2023-02-28T13:16:47;40.58;;;6.15;;
54307;SDS011;40208;39.778;2.710;2023-02-28T13:28:56;34.13;;;6.43;;
54307;SDS011;40208;39.778;2.710;2023-02-28T13:37:35;33.20;;;7.72;;
54307;SDS011;40208;39.778;2.710;2023-02-28T13:40:27;36.58;;;6.38;;
54307;SDS011;40208;39.778;2.710;2023-02-28T13:43:21;30.33;;;5.35;;
54307;SDS011;40208;39.778;2.710;2023-02-28T13:49:33;28.58;;;5.50;;
54307;SDS011;40208;39.778;2.710;2023-02-28T13:52:20;28.02;;;4.93;;
54307;SDS011;40208;39.778;2.710;2023-02-28T14:01:37;27.60;;;4.05;;
54307;SDS011;40208;39.778;2.710;2023-02-28T14:04:46;28.35;;;4.45;;
54307;SDS011;40208;39.778;2.710;2023-02-28T14:07:46;25.48;;;4.75;;
54307;SDS011;40208;39.778;2.710;2023-02-28T14:13:40;21.33;;;4.47;;
54307;SDS011;40208;39.778;2.710;2023-02-28T14:19:31;27.65;;;6.18;;
54307;SDS011;40208;39.778;2.710;2023-02-28T14:25:20;32.40;;;5.05;;
54307;SDS011;40208;39.778;2.710;2023-02-28T14:37:03;18.70;;;5.53;;
54307;SDS011;40208;39.778;2.710;2023-02-28T14:39:49;23.85;;;5.03;;
54307;SDS011;40208;39.778;2.710;2023-02-28T14:42:36;18.42;;;4.28;;
54307;SDS011;40208;39.778;2.710;2023-02-28T14:45:32;25.95;;;4.57;;
54307;SDS011;40208;39.778;2.710;2023-02-28T14:48:18;24.00;;;4.28;;
54307;SDS011;40208;39.778;2.710;2023-02-28T14:51:04;24.77;;;4.15;;
54307;SDS011;40208;39.778;2.710;2023-02-28T14:53:51;20.08;;;3.67;;
54307;SDS011;40208;39.778;2.710;2023-02-28T14:56:41;24.33;;;4.20;;
54307;SDS011;40208;39.778;2.710;2023-02-28T14:59:30;22.00;;;5.63;;
54307;SDS011;40208;39.778;2.710;2023-02-28T15:02:23;26.75;;;4.35;;
54307;SDS011;40208;39.778;2.710;2023-02-28T15:08:02;21.05;;;3.78;;
54307;SDS011;40208;39.778;2.710;2023-02-28T15:10:53;34.38;;;5.88;;
54307;SDS011;40208;39.778;2.710;2023-02-28T15:13:46;24.65;;;4.95;;
54307;SDS011;40208;39.778;2.710;2023-02-28T15:16:40;22.33;;;4.93;;
54307;SDS011;40208;39.778;2.710;2023-02-28T15:19:32;24.25;;;3.75;;
54307;SDS011;40208;39.778;2.710;2023-02-28T15:22:25;22.02;;;4.50;;
54307;SDS011;40208;39.778;2.710;2023-02-28T15:25:19;19.77;;;5.43;;
54307;SDS011;40208;39.778;2.710;2023-02-28T15:28:09;23.77;;;4.40;;
54307;SDS011;40208;39.778;2.710;2023-02-28T15:31:02;23.38;;;4.18;;
54307;SDS011;40208;39.778;2.710;2023-02-28T15:34:04;18.45;;;4.07;;
54307;SDS011;40208;39.778;2.710;2023-02-28T15:36:50;22.98;;;4.68;;
54307;SDS011;40208;39.778;2.710;2023-02-28T15:39:40;16.67;;;3.38;;
54307;SDS011;40208;39.778;2.710;2023-02-28T15:42:28;12.95;;;3.45;;
54307;SDS011;40208;39.778;2.710;2023-02-28T15:48:37;24.15;;;4.15;;
54307;SDS011;40208;39.778;2.710;2023-02-28T15:51:32;18.58;;;3.45;;
54307;SDS011;40208;39.778;2.710;2023-02-28T15:54:24;16.52;;;3.22;;
54307;SDS011;40208;39.778;2.710;2023-02-28T15:57:24;20.80;;;3.30;;
54307;SDS011;40208;39.778;2.710;2023-02-28T16:00:13;18.90;;;3.53;;
54307;SDS011;40208;39.778;2.710;2023-02-28T16:03:00;16.90;;;3.45;;
54307;SDS011;40208;39.778;2.710;2023-02-28T16:05:45;22.00;;;3.60;;
54307;SDS011;40208;39.778;2.710;2023-02-28T16:08:30;17.85;;;3.95;;
54307;SDS011;40208;39.778;2.710;2023-02-28T16:11:15;21.20;;;4.50;;
54307;SDS011;40208;39.778;2.710;2023-02-28T16:14:00;18.55;;;3.88;;
54307;SDS011;40208;39.778;2.710;2023-02-28T16:16:46;17.95;;;3.88;;
54307;SDS011;40208;39.778;2.710;2023-02-28T16:19:33;24.10;;;4.38;;
54307;SDS011;40208;39.778;2.710;2023-02-28T16:22:18;19.60;;;4.85;;
54307;SDS011;40208;39.778;2.710;2023-02-28T16:25:03;19.60;;;3.97;;
54307;SDS011;40208;39.778;2.710;2023-02-28T16:27:52;16.52;;;3.63;;
54307;SDS011;40208;39.778;2.710;2023-02-28T16:30:44;17.17;;;3.35;;
54307;SDS011;40208;39.778;2.710;2023-02-28T16:33:30;21.75;;;4.03;;
54307;SDS011;40208;39.778;2.710;2023-02-28T16:36:19;28.40;;;4.53;;
54307;SDS011;40208;39.778;2.710;2023-02-28T16:39:07;19.77;;;4.77;;
54307;SDS011;40208;39.778;2.710;2023-02-28T16:41:52;16.77;;;3.72;;
54307;SDS011;40208;39.778;2.710;2023-02-28T16:44:37;18.30;;;3.97;;
54307;SDS011;40208;39.778;2.710;2023-02-28T16:47:22;24.05;;;3.55;;
54307;SDS011;40208;39.778;2.710;2023-02-28T16:50:15;19.92;;;3.33;;
54307;SDS011;40208;39.778;2.710;2023-02-28T16:53:11;30.10;;;5.40;;
54307;SDS011;40208;39.778;2.710;2023-02-28T16:55:56;15.32;;;3.20;;
54307;SDS011;40208;39.778;2.710;2023-02-28T16:58:40;21.85;;;4.05;;
54307;SDS011;40208;39.778;2.710;2023-02-28T17:01:25;25.58;;;4.65;;
54307;SDS011;40208;39.778;2.710;2023-02-28T17:04:18;20.85;;;3.60;;
54307;SDS011;40208;39.778;2.710;2023-02-28T17:07:16;18.33;;;3.60;;
54307;SDS011;40208;39.778;2.710;2023-02-28T17:10:01;15.85;;;4.03;;
54307;SDS011;40208;39.778;2.710;2023-02-28T17:12:52;21.85;;;3.40;;
54307;SDS011;40208;39.778;2.710;2023-02-28T17:15:37;12.68;;;3.65;;
54307;SDS011;40208;39.778;2.710;2023-02-28T17:18:23;18.58;;;3.80;;
54307;SDS011;40208;39.778;2.710;2023-02-28T17:21:12;25.30;;;3.65;;
54307;SDS011;40208;39.778;2.710;2023-02-28T17:23:59;23.40;;;3.28;;
54307;SDS011;40208;39.778;2.710;2023-02-28T17:26:44;13.23;;;2.92;;
54307;SDS011;40208;39.778;2.710;2023-02-28T17:29:29;12.10;;;2.83;;
54307;SDS011;40208;39.778;2.710;2023-02-28T17:32:13;18.73;;;3.08;;
54307;SDS011;40208;39.778;2.710;2023-02-28T17:34:58;13.25;;;2.97;;
54307;SDS011;40208;39.778;2.710;2023-02-28T17:37:43;17.73;;;3.03;;
54307;SDS011;40208;39.778;2.710;2023-02-28T17:40:28;14.02;;;3.03;;
54307;SDS011;40208;39.778;2.710;2023-02-28T17:43:13;19.70;;;3.63;;
54307;SDS011;40208;39.778;2.710;2023-02-28T17:45:59;21.52;;;4.03;;
54307;SDS011;40208;39.778;2.710;2023-02-28T17:48:43;20.42;;;4.07;;
54307;SDS011;40208;39.778;2.710;2023-02-28T17:51:28;21.25;;;3.80;;
54307;SDS011;40208;39.778;2.710;2023-02-28T17:54:13;23.23;;;4.43;;
54307;SDS011;40208;39.778;2.710;2023-02-28T17:56:58;13.68;;;2.90;;
54307;SDS011;40208;39.778;2.710;2023-02-28T17:59:43;21.48;;;3.58;;
54307;SDS011;40208;39.778;2.710;2023-02-28T18:02:28;15.85;;;2.78;;
54307;SDS011;40208;39.778;2.710;2023-02-28T18:05:13;20.42;;;3.20;;
54307;SDS011;40208;39.778;2.710;2023-02-28T18:07:58;16.45;;;3.42;;
54307;SDS011;40208;39.778;2.710;2023-02-28T18:10:45;15.77;;;2.65;;
54307;SDS011;40208;39.778;2.710;2023-02-28T18:13:29;13.50;;;3.38;;
54307;SDS011;40208;39.778;2.710;2023-02-28T18:16:14;17.08;;;4.78;;
54307;SDS011;40208;39.778;2.710;2023-02-28T18:19:00;32.05;;;6.43;;
54307;SDS011;40208;39.778;2.710;2023-02-28T18:21:49;17.17;;;5.25;;
54307;SDS011;40208;39.778;2.710;2023-02-28T18:24:35;21.90;;;4.85;;
54307;SDS011;40208;39.778;2.710;2023-02-28T18:27:20;25.42;;;3.72;;
54307;SDS011;40208;39.778;2.710;2023-02-28T18:30:06;14.60;;;3.47;;
54307;SDS011;40208;39.778;2.710;2023-02-28T18:32:51;12.88;;;2.80;;
54307;SDS011;40208;39.778;2.710;2023-02-28T18:35:36;17.30;;;3.17;;
54307;SDS011;40208;39.778;2.710;2023-02-28T18:38:22;17.35;;;4.43;;
54307;SDS011;40208;39.778;2.710;2023-02-28T18:41:07;27.17;;;4.57;;
54307;SDS011;40208;39.778;2.710;2023-02-28T18:43:52;14.93;;;3.25;;
54307;SDS011;40208;39.778;2.710;2023-02-28T18:46:38;15.88;;;3.80;;
54307;SDS011;40208;39.778;2.710;2023-02-28T18:49:23;18.90;;;3.00;;
54307;SDS011;40208;39.778;2.710;2023-02-28T18:52:08;21.15;;;2.50;;
54307;SDS011;40208;39.778;2.710;2023-02-28T18:54:53;28.55;;;4.13;;
54307;SDS011;40208;39.778;2.710;2023-02-28T18:57:38;21.00;;;3.25;;
54307;SDS011;40208;39.778;2.710;2023-02-28T19:00:24;19.73;;;3.53;;
54307;SDS011;40208;39.778;2.710;2023-02-28T19:03:09;16.42;;;4.47;;
54307;SDS011;40208;39.778;2.710;2023-02-28T19:05:56;20.25;;;3.90;;
54307;SDS011;40208;39.778;2.710;2023-02-28T19:08:42;20.30;;;3.65;;
54307;SDS011;40208;39.778;2.710;2023-02-28T19:11:27;22.30;;;4.93;;
54307;SDS011;40208;39.778;2.710;2023-02-28T19:14:12;23.58;;;5.82;;
54307;SDS011;40208;39.778;2.710;2023-02-28T19:16:57;18.85;;;4.10;;
54307;SDS011;40208;39.778;2.710;2023-02-28T19:19:42;14.48;;;3.47;;
54307;SDS011;40208;39.778;2.710;2023-02-28T19:22:29;19.38;;;3.75;;
54307;SDS011;40208;39.778;2.710;2023-02-28T19:25:15;30.60;;;4.53;;
54307;SDS011;40208;39.778;2.710;2023-02-28T19:28:00;23.38;;;4.05;;
54307;SDS011;40208;39.778;2.710;2023-02-28T19:30:45;13.63;;;3.35;;
54307;SDS011;40208;39.778;2.710;2023-02-28T19:33:31;16.25;;;3.70;;
54307;SDS011;40208;39.778;2.710;2023-02-28T19:36:16;20.00;;;3.33;;
54307;SDS011;40208;39.778;2.710;2023-02-28T19:39:02;13.07;;;2.70;;
54307;SDS011;40208;39.778;2.710;2023-02-28T19:41:48;17.13;;;2.85;;
54307;SDS011;40208;39.778;2.710;2023-02-28T19:44:33;15.68;;;3.30;;
54307;SDS011;40208;39.778;2.710;2023-02-28T19:47:18;9.40;;;2.90;;
54307;SDS011;40208;39.778;2.710;2023-02-28T19:50:02;15.90;;;3.33;;
54307;SDS011;40208;39.778;2.710;2023-02-28T19:52:49;18.48;;;4.25;;
54307;SDS011;40208;39.778;2.710;2023-02-28T19:55:34;19.45;;;3.30;;
54307;SDS011;40208;39.778;2.710;2023-02-28T19:58:19;13.70;;;3.22;;
54307;SDS011;40208;39.778;2.710;2023-02-28T20:03:57;21.60;;;2.85;;
54307;SDS011;40208;39.778;2.710;2023-02-28T20:06:41;16.67;;;3.10;;
54307;SDS011;40208;39.778;2.710;2023-02-28T20:09:29;18.20;;;4.05;;
54307;SDS011;40208;39.778;2.710;2023-02-28T20:12:15;25.13;;;3.80;;
54307;SDS011;40208;39.778;2.710;2023-02-28T20:15:01;12.40;;;3.20;;
54307;SDS011;40208;39.778;2.710;2023-02-28T20:17:46;16.70;;;3.45;;
54307;SDS011;40208;39.778;2.710;2023-02-28T20:20:31;21.13;;;5.63;;
54307;SDS011;40208;39.778;2.710;2023-02-28T20:23:19;23.85;;;3.65;;
54307;SDS011;40208;39.778;2.710;2023-02-28T20:26:04;23.75;;;3.35;;
54307;SDS011;40208;39.778;2.710;2023-02-28T20:28:53;16.90;;;3.88;;
54307;SDS011;40208;39.778;2.710;2023-02-28T20:31:38;24.83;;;6.63;;
54307;SDS011;40208;39.778;2.710;2023-02-28T20:34:23;29.70;;;3.83;;
54307;SDS011;40208;39.778;2.710;2023-02-28T20:37:09;19.38;;;3.30;;
54307;SDS011;40208;39.778;2.710;2023-02-28T20:40:05;12.65;;;3.17;;
54307;SDS011;40208;39.778;2.710;2023-02-28T20:42:51;21.20;;;3.55;;
54307;SDS011;40208;39.778;2.710;2023-02-28T20:45:37;17.33;;;3.70;;
54307;SDS011;40208;39.778;2.710;2023-02-28T20:48:24;13.68;;;3.47;;
54307;SDS011;40208;39.778;2.710;2023-02-28T20:51:09;19.08;;;4.00;;
54307;SDS011;40208;39.778;2.710;2023-02-28T20:53:54;19.95;;;3.97;;
54307;SDS011;40208;39.778;2.710;2023-02-28T20:56:39;16.13;;;3.88;;
54307;SDS011;40208;39.778;2.710;2023-02-28T20:59:24;25.13;;;4.68;;
54307;SDS011;40208;39.778;2.710;2023-02-28T21:02:10;22.42;;;3.53;;
54307;SDS011;40208;39.778;2.710;2023-02-28T21:04:59;19.40;;;3.75;;
54307;SDS011;40208;39.778;2.710;2023-02-28T21:07:44;18.20;;;3.17;;
54307;SDS011;40208;39.778;2.710;2023-02-28T21:10:29;21.88;;;3.75;;
54307;SDS011;40208;39.778;2.710;2023-02-28T21:13:14;22.27;;;3.20;;
54307;SDS011;40208;39.778;2.710;2023-02-28T21:16:06;12.90;;;3.28;;
54307;SDS011;40208;39.778;2.710;2023-02-28T21:18:52;24.05;;;4.00;;
54307;SDS011;40208;39.778;2.710;2023-02-28T21:21:38;16.30;;;3.35;;
54307;SDS011;40208;39.778;2.710;2023-02-28T21:24:26;18.58;;;3.90;;
54307;SDS011;40208;39.778;2.710;2023-02-28T21:27:11;12.02;;;3.58;;
54307;SDS011;40208;39.778;2.710;2023-02-28T21:29:56;15.93;;;3.50;;
54307;SDS011;40208;39.778;2.710;2023-02-28T21:32:41;18.05;;;4.22;;
54307;SDS011;40208;39.778;2.710;2023-02-28T21:35:26;19.48;;;3.40;;
54307;SDS011;40208;39.778;2.710;2023-02-28T21:38:10;18.63;;;3.30;;
54307;SDS011;40208;39.778;2.710;2023-02-28T21:41:01;19.42;;;3.33;;
54307;SDS011;40208;39.778;2.710;2023-02-28T21:43:50;26.40;;;4.13;;
54307;SDS011;40208;39.778;2.710;2023-02-28T21:46:36;23.85;;;4.38;;
54307;SDS011;40208;39.778;2.710;2023-02-28T21:49:21;24.65;;;5.95;;
54307;SDS011;40208;39.778;2.710;2023-02-28T21:52:06;13.18;;;4.18;;
54307;SDS011;40208;39.778;2.710;2023-02-28T21:54:51;22.75;;;3.28;;
54307;SDS011;40208;39.778;2.710;2023-02-28T21:57:36;23.85;;;3.83;;
54307;SDS011;40208;39.778;2.710;2023-02-28T22:00:21;15.23;;;3.70;;
54307;SDS011;40208;39.778;2.710;2023-02-28T22:03:06;19.10;;;3.78;;
54307;SDS011;40208;39.778;2.710;2023-02-28T22:05:51;17.58;;;3.70;;
54307;SDS011;40208;39.778;2.710;2023-02-28T22:08:37;18.27;;;3.28;;
54307;SDS011;40208;39.778;2.710;2023-02-28T22:11:23;18.77;;;3.10;;
54307;SDS011;40208;39.778;2.710;2023-02-28T22:14:09;20.38;;;4.13;;
54307;SDS011;40208;39.778;2.710;2023-02-28T22:16:54;14.88;;;3.42;;
54307;SDS011;40208;39.778;2.710;2023-02-28T22:19:39;17.75;;;2.70;;
54307;SDS011;40208;39.778;2.710;2023-02-28T22:22:24;11.93;;;2.85;;
54307;SDS011;40208;39.778;2.710;2023-02-28T22:25:09;20.13;;;4.03;;
54307;SDS011;40208;39.778;2.710;2023-02-28T22:27:54;16.27;;;3.83;;
54307;SDS011;40208;39.778;2.710;2023-02-28T22:30:39;14.70;;;3.35;;
54307;SDS011;40208;39.778;2.710;2023-02-28T22:33:24;17.90;;;4.30;;
54307;SDS011;40208;39.778;2.710;2023-02-28T22:36:11;13.70;;;4.05;;
54307;SDS011;40208;39.778;2.710;2023-02-28T22:38:58;14.13;;;3.95;;
54307;SDS011;40208;39.778;2.710;2023-02-28T22:41:44;21.02;;;3.33;;
54307;SDS011;40208;39.778;2.710;2023-02-28T22:44:29;16.17;;;3.22;;
54307;SDS011;40208;39.778;2.710;2023-02-28T22:47:14;15.63;;;2.78;;
54307;SDS011;40208;39.778;2.710;2023-02-28T22:49:58;10.20;;;2.88;;
54307;SDS011;40208;39.778;2.710;2023-02-28T22:52:43;22.95;;;3.33;;
54307;SDS011;40208;39.778;2.710;2023-02-28T22:55:28;22.83;;;4.32;;
54307;SDS011;40208;39.778;2.710;2023-02-28T22:58:13;24.45;;;3.75;;
54307;SDS011;40208;39.778;2.710;2023-02-28T23:01:09;21.08;;;3.78;;
54307;SDS011;40208;39.778;2.710;2023-02-28T23:03:56;14.57;;;2.92;;
54307;SDS011;40208;39.778;2.710;2023-02-28T23:06:42;12.40;;;2.90;;
54307;SDS011;40208;39.778;2.710;2023-02-28T23:09:27;22.52;;;3.33;;
54307;SDS011;40208;39.778;2.710;2023-02-28T23:12:12;18.15;;;4.65;;
54307;SDS011;40208;39.778;2.710;2023-02-28T23:14:57;15.05;;;3.33;;
54307;SDS011;40208;39.778;2.710;2023-02-28T23:17:43;20.25;;;3.47;;
54307;SDS011;40208;39.778;2.710;2023-02-28T23:20:29;17.52;;;3.28;;
54307;SDS011;40208;39.778;2.710;2023-02-28T23:23:14;25.10;;;4.63;;
54307;SDS011;40208;39.778;2.710;2023-02-28T23:25:58;25.83;;;4.32;;
54307;SDS011;40208;39.778;2.710;2023-02-28T23:28:44;21.67;;;3.65;;
54307;SDS011;40208;39.778;2.710;2023-02-28T23:31:33;17.63;;;3.80;;
54307;SDS011;40208;39.778;2.710;2023-02-28T23:34:18;13.45;;;3.45;;
54307;SDS011;40208;39.778;2.710;2023-02-28T23:37:09;23.67;;;7.80;;
54307;SDS011;40208;39.778;2.710;2023-02-28T23:39:54;18.60;;;4.40;;
54307;SDS011;40208;39.778;2.710;2023-02-28T23:42:39;12.93;;;3.15;;
54307;SDS011;40208;39.778;2.710;2023-02-28T23:45:24;19.88;;;4.45;;
54307;SDS011;40208;39.778;2.710;2023-02-28T23:48:09;20.17;;;4.40;;
54307;SDS011;40208;39.778;2.710;2023-02-28T23:50:54;11.80;;;3.80;;
54307;SDS011;40208;39.778;2.710;2023-02-28T23:53:45;13.60;;;4.05;;
54307;SDS011;40208;39.778;2.710;2023-02-28T23:56:31;25.42;;;7.97;;
54307;SDS011;40208;39.778;2.710;2023-02-28T23:59:16;33.30;;;13.25;;
